Garfield Plt, Maine
Current Conditions -  °F | °C
As of 12:55 PM on Saturday 25 Oct 2014 (Local Time) from KPQI Reporting Station
Overcast Overcast  
Wind Chill: 39°   Ceiling: 1700
Heat Index: 43°   Visibility: 3mi
Dew Point: 37°   Wind: 6mph
Humidity: 81%   Direction: 360°N
Pressure: 29.59"   Gusts: NA
Location:  46.6213°N, 68.5555°W
Report Text: KPQI 251655Z AUTO 36005KT 3SM FEW010 OVC017 06/03 A2959 RMK AO1
Loading
Personal Weather Stations






























Interactive Weather Map
Tropical Storm Tracking
New forecast layout! Learn more

10-Day Weather Forecast

Advertisements
Track Severe Weather on mobile